Time;durP1;ratioP1;P1;durP2;ratioP2;P2;SDS_P1;SDS_P2;PMS_P1;PMS_P2;Temp;Humidity;BMP_temperature;BMP_pressure;BME280_temperature;BME280_humidity;BME280_pressure;Samples;Min_cycle;Max_cycle;Signal;HPM_P1;HPM_P2
2022/04/03 00:01:14;;;;;;;4.45;1.90;;;10.20;52.50;;;;;;4995495;28;20081;-67
2022/04/03 00:03:41;;;;;;;3.60;1.80;;;10.20;52.00;;;;;;4995488;28;20046;-68
2022/04/03 00:06:07;;;;;;;3.50;1.75;;;10.10;52.10;;;;;;4995814;28;20392;-66
2022/04/03 00:08:32;;;;;;;2.58;1.73;;;10.10;52.30;;;;;;4995519;28;20542;-68
2022/04/03 00:10:59;;;;;;;2.83;1.55;;;10.20;52.80;;;;;;4995600;28;20046;-54
2022/04/03 00:13:25;;;;;;;3.80;2.00;;;10.20;52.50;;;;;;4995359;28;20452;-65
2022/04/03 00:15:51;;;;;;;3.33;2.00;;;10.10;52.50;;;;;;4994454;28;20097;-53
2022/04/03 00:18:17;;;;;;;3.40;1.88;;;10.10;52.60;;;;;;4995523;28;20487;-55
2022/04/03 00:20:43;;;;;;;5.22;2.47;;;10.10;53.10;;;;;;4995386;28;20101;-54
2022/04/03 00:23:09;;;;;;;4.25;1.95;;;10.10;52.90;;;;;;4995422;28;20451;-55
2022/04/03 00:25:35;;;;;;;4.13;2.10;;;10.10;52.80;;;;;;4995337;28;20460;-63
2022/04/03 00:28:01;;;;;;;5.07;2.10;;;10.00;53.20;;;;;;4995347;28;20030;-67
2022/04/03 00:30:27;;;;;;;3.58;2.35;;;10.00;53.20;;;;;;4994557;28;20373;-67
2022/04/03 00:32:52;;;;;;;3.75;1.90;;;9.90;53.10;;;;;;4995179;28;20042;-68
2022/04/03 00:35:20;;;;;;;3.30;2.03;;;9.90;53.60;;;;;;4994931;28;20022;-67
2022/04/03 00:37:46;;;;;;;4.13;2.00;;;9.90;53.70;;;;;;4995180;28;20073;-63
2022/04/03 00:40:13;;;;;;;4.28;2.08;;;9.90;53.90;;;;;;4995097;28;20022;-56
2022/04/03 00:42:39;;;;;;;3.55;1.75;;;10.00;53.90;;;;;;4995021;28;20142;-53
2022/04/03 00:45:05;;;;;;;4.32;2.47;;;9.90;55.00;;;;;;4994592;28;20507;-62
2022/04/03 00:47:32;;;;;;;5.30;1.65;;;9.90;54.50;;;;;;4994724;28;20061;-68
2022/04/03 00:49:58;;;;;;;2.85;1.70;;;9.90;54.20;;;;;;4994966;28;20113;-65
2022/04/03 00:52:24;;;;;;;5.30;1.90;;;9.80;54.30;;;;;;4994736;28;20038;-67
2022/04/03 00:54:49;;;;;;;5.25;2.03;;;9.80;54.60;;;;;;4994616;28;20022;-55
2022/04/03 00:57:16;;;;;;;3.80;2.10;;;9.70;54.90;;;;;;4994776;28;20088;-54
2022/04/03 00:59:43;;;;;;;4.30;2.20;;;9.80;55.10;;;;;;4994127;28;20101;-58
2022/04/03 01:02:09;;;;;;;5.35;2.30;;;9.80;54.80;;;;;;4994505;28;20030;-61
2022/04/03 01:04:38;;;;;;;4.00;1.95;;;9.80;54.70;;;;;;4994565;28;20026;-61
2022/04/03 01:07:04;;;;;;;2.50;2.03;;;9.70;55.00;;;;;;4994558;28;20443;-54
2022/04/03 01:09:30;;;;;;;3.50;2.10;;;9.70;55.00;;;;;;4994295;28;20062;-64
2022/04/03 01:11:56;;;;;;;4.10;2.10;;;9.70;55.30;;;;;;4994312;28;20048;-57
2022/04/03 01:14:37;;;;;;;4.07;1.73;;;9.70;55.30;;;;;;4994318;28;20038;-66
2022/04/03 01:17:04;;;;;;;4.05;2.63;;;9.60;55.50;;;;;;4994591;28;20092;-53
2022/04/03 01:19:30;;;;;;;6.60;3.33;;;9.60;55.20;;;;;;4976538;28;20030;-63
2022/04/03 01:21:56;;;;;;;4.07;2.33;;;9.50;55.30;;;;;;4994444;28;20026;-55
2022/04/03 01:24:23;;;;;;;4.80;2.58;;;9.50;55.40;;;;;;4994126;28;20026;-55
2022/04/03 01:26:49;;;;;;;4.97;3.33;;;9.40;55.50;;;;;;4994358;28;20365;-58
2022/04/03 01:29:18;;;;;;;3.75;2.83;;;9.40;55.90;;;;;;4993831;28;20547;-53
2022/04/03 01:31:47;;;;;;;8.57;4.30;;;9.40;56.00;;;;;;4993941;28;20046;-63
2022/04/03 01:34:16;;;;;;;8.75;4.90;;;9.40;56.20;;;;;;4994092;28;20023;-54
2022/04/03 01:36:43;;;;;;;8.73;5.57;;;9.30;56.00;;;;;;4993959;28;20030;-56
2022/04/03 01:39:11;;;;;;;10.10;5.18;;;9.30;56.20;;;;;;4994175;28;20030;-60
2022/04/03 01:41:41;;;;;;;10.95;5.03;;;9.30;56.30;;;;;;4993864;28;20076;-62
2022/04/03 01:44:09;;;;;;;11.52;5.45;;;9.30;56.40;;;;;;4993711;28;20042;-63
2022/04/03 01:46:36;;;;;;;14.93;7.70;;;9.30;56.60;;;;;;4994037;28;20428;-66
2022/04/03 01:49:01;;;;;;;14.32;7.20;;;9.30;56.60;;;;;;4994179;28;20023;-65
2022/04/03 01:51:27;;;;;;;15.00;8.50;;;9.30;56.70;;;;;;4993663;28;20049;-62
2022/04/03 01:53:52;;;;;;;15.23;8.25;;;9.30;56.90;;;;;;4994059;28;20501;-66
2022/04/03 01:56:18;;;;;;;12.18;7.63;;;9.20;56.70;;;;;;4976303;28;20494;-64
2022/04/03 01:58:44;;;;;;;14.98;7.63;;;9.20;57.10;;;;;;4993782;28;20032;-65
2022/04/03 02:01:09;;;;;;;11.52;8.00;;;9.10;57.10;;;;;;4993702;28;20041;-63
2022/04/03 02:03:35;;;;;;;10.93;6.68;;;9.10;57.20;;;;;;4993793;28;20027;-58
2022/04/03 02:06:00;;;;;;;10.45;6.65;;;9.10;57.10;;;;;;4993553;28;20028;-63
2022/04/03 02:08:27;;;;;;;9.73;6.22;;;9.20;57.00;;;;;;4993963;28;20077;-53
2022/04/03 02:10:53;;;;;;;10.13;5.65;;;9.10;57.20;;;;;;4993641;28;20384;-61
2022/04/03 02:13:19;;;;;;;7.55;5.03;;;9.00;57.40;;;;;;4993600;28;20034;-65
2022/04/03 02:15:44;;;;;;;10.55;5.88;;;9.00;57.50;;;;;;4993734;28;20471;-63
2022/04/03 02:18:10;;;;;;;6.53;4.95;;;9.00;57.70;;;;;;4993999;28;20464;-61
2022/04/03 02:20:36;;;;;;;6.57;4.75;;;9.00;57.80;;;;;;4993765;28;20065;-63
2022/04/03 02:23:03;;;;;;;6.97;4.50;;;9.00;57.70;;;;;;4993698;28;20022;-63
2022/04/03 02:25:30;;;;;;;5.47;4.20;;;9.00;57.70;;;;;;4993865;28;20033;-61
2022/04/03 02:27:56;;;;;;;6.85;4.70;;;8.90;57.90;;;;;;4993394;28;20471;-66
2022/04/03 02:30:21;;;;;;;8.30;4.85;;;8.90;58.00;;;;;;4993317;28;20427;-65
2022/04/03 02:32:47;;;;;;;7.90;4.50;;;8.80;58.10;;;;;;4993264;28;20042;-66
2022/04/03 02:35:13;;;;;;;6.53;4.57;;;8.90;58.30;;;;;;4993517;28;20472;-59
2022/04/03 02:37:41;;;;;;;9.25;5.00;;;8.80;58.50;;;;;;4993397;28;20081;-55
2022/04/03 02:40:08;;;;;;;6.20;4.63;;;8.80;58.50;;;;;;4997225;28;20053;-66
2022/04/03 02:42:34;;;;;;;5.43;4.28;;;8.80;58.60;;;;;;4996741;28;20034;-66
2022/04/03 02:44:59;;;;;;;5.95;4.80;;;8.80;58.70;;;;;;4997138;28;20073;-54
2022/04/03 02:47:25;;;;;;;5.65;4.90;;;8.80;58.70;;;;;;4997205;28;20050;-65
2022/04/03 02:49:51;;;;;;;7.35;5.00;;;8.80;58.80;;;;;;4997049;28;20054;-66
2022/04/03 02:52:19;;;;;;;5.60;4.30;;;8.90;58.90;;;;;;4996848;28;20069;-64
2022/04/03 02:54:45;;;;;;;5.50;3.83;;;8.90;59.00;;;;;;4996794;28;20030;-61
2022/04/03 02:57:15;;;;;;;5.75;3.83;;;8.90;58.60;;;;;;4996812;28;20545;-62
2022/04/03 02:59:41;;;;;;;9.00;4.70;;;8.90;58.70;;;;;;4997102;28;20506;-54
2022/04/03 03:02:07;;;;;;;6.32;4.70;;;8.90;58.80;;;;;;4996680;28;20038;-57
2022/04/03 03:04:35;;;;;;;7.32;4.63;;;8.80;58.70;;;;;;4996599;28;20022;-62
2022/04/03 03:07:02;;;;;;;6.95;4.75;;;8.90;58.90;;;;;;4996694;28;20476;-55
2022/04/03 03:09:27;;;;;;;6.57;4.25;;;8.80;59.10;;;;;;4996493;28;20479;-54
2022/04/03 03:11:53;;;;;;;7.22;4.43;;;8.80;59.00;;;;;;4996407;28;20045;-67
2022/04/03 03:14:19;;;;;;;5.32;4.30;;;8.80;59.30;;;;;;4996901;28;20026;-66
2022/04/03 03:16:44;;;;;;;5.90;4.40;;;8.80;59.40;;;;;;4996615;28;20028;-63
2022/04/03 03:19:10;;;;;;;7.07;4.38;;;8.80;59.70;;;;;;4996451;28;20037;-66
2022/04/03 03:21:36;;;;;;;7.20;4.95;;;8.80;59.60;;;;;;4996523;28;20049;-67
2022/04/03 03:24:02;;;;;;;7.65;4.85;;;8.80;59.60;;;;;;4995975;28;20018;-65
2022/04/03 03:26:27;;;;;;;7.18;4.05;;;8.80;59.80;;;;;;4996612;28;20026;-66
2022/04/03 03:28:53;;;;;;;7.22;4.57;;;8.70;59.90;;;;;;4996357;28;20464;-64
2022/04/03 03:31:19;;;;;;;9.32;4.10;;;8.70;60.00;;;;;;4996153;28;20400;-65
2022/04/03 03:33:45;;;;;;;6.43;4.18;;;8.70;60.20;;;;;;4995982;28;20101;-63
2022/04/03 03:36:11;;;;;;;6.50;3.78;;;8.80;60.20;;;;;;4996482;28;20022;-63
2022/04/03 03:38:37;;;;;;;5.90;3.83;;;8.70;60.20;;;;;;4995967;28;20022;-61
2022/04/03 03:41:03;;;;;;;5.40;3.83;;;8.70;60.20;;;;;;4993878;28;20379;-62
2022/04/03 03:43:29;;;;;;;4.68;4.05;;;8.70;60.20;;;;;;4990771;28;20407;-58
2022/04/03 03:45:56;;;;;;;5.35;3.80;;;8.70;60.30;;;;;;4959392;28;20019;-53
2022/04/03 03:48:22;;;;;;;7.50;3.95;;;8.70;60.00;;;;;;4976340;28;20066;-58
2022/04/03 03:50:48;;;;;;;4.88;3.95;;;8.60;60.10;;;;;;4975134;28;20101;-56
2022/04/03 03:53:13;;;;;;;6.00;3.92;;;8.70;60.50;;;;;;4975880;28;20050;-67
2022/04/03 03:55:39;;;;;;;5.70;3.63;;;8.70;60.50;;;;;;4976091;28;20073;-66
2022/04/03 03:58:05;;;;;;;7.78;3.92;;;8.60;60.60;;;;;;4976209;28;20031;-54
2022/04/03 04:00:30;;;;;;;5.15;3.42;;;8.60;60.70;;;;;;4976090;28;20150;-55
2022/04/03 04:02:56;;;;;;;4.40;3.22;;;8.60;60.60;;;;;;4976171;28;20102;-63
2022/04/03 04:05:22;;;;;;;5.47;3.50;;;8.60;60.80;;;;;;4976347;28;20018;-63
2022/04/03 04:07:48;;;;;;;6.82;3.50;;;8.60;60.50;;;;;;4976025;28;20397;-55
2022/04/03 04:10:15;;;;;;;5.45;3.55;;;8.60;60.60;;;;;;4976252;28;20554;-58
2022/04/03 04:12:42;;;;;;;5.25;3.90;;;8.70;60.70;;;;;;4976014;28;20122;-54
2022/04/03 04:15:08;;;;;;;4.93;4.03;;;8.60;60.60;;;;;;4976009;28;20027;-55
2022/04/03 04:17:39;;;;;;;5.57;3.38;;;8.50;60.70;;;;;;4976066;28;20109;-67
2022/04/03 04:20:06;;;;;;;6.78;3.75;;;8.50;60.60;;;;;;4975866;28;20452;-63
2022/04/03 04:22:31;;;;;;;6.70;3.85;;;8.50;60.90;;;;;;4975696;28;20093;-66
2022/04/03 04:24:57;;;;;;;5.03;3.15;;;8.50;61.00;;;;;;4975610;28;20023;-66
2022/04/03 04:27:22;;;;;;;5.43;3.50;;;8.50;60.80;;;;;;4975908;28;20027;-68
2022/04/03 04:29:48;;;;;;;4.45;3.40;;;8.50;60.80;;;;;;4975835;28;20037;-66
2022/04/03 04:32:14;;;;;;;6.38;3.95;;;8.40;60.70;;;;;;4975638;28;20043;-60
2022/04/03 04:34:39;;;;;;;5.53;3.40;;;8.50;60.80;;;;;;4975811;28;20093;-66
2022/04/03 04:37:05;;;;;;;5.40;3.28;;;8.50;60.70;;;;;;4975290;28;20027;-66
2022/04/03 04:39:31;;;;;;;5.65;3.38;;;8.40;60.70;;;;;;4975560;28;20022;-66
2022/04/03 04:41:57;;;;;;;4.63;3.40;;;8.40;61.10;;;;;;4975696;28;20027;-66
2022/04/03 04:44:23;;;;;;;7.70;3.78;;;8.40;60.90;;;;;;4975407;28;20031;-65
2022/04/03 04:46:48;;;;;;;5.22;3.10;;;8.40;60.90;;;;;;4975511;28;20026;-65
2022/04/03 04:49:16;;;;;;;8.57;4.32;;;8.30;61.10;;;;;;4975392;28;20023;-64
2022/04/03 04:51:45;;;;;;;8.90;4.38;;;8.30;61.20;;;;;;4975205;28;20042;-54
2022/04/03 04:54:11;;;;;;;6.57;4.13;;;8.40;61.00;;;;;;4975234;28;20071;-60
2022/04/03 04:56:36;;;;;;;5.20;4.30;;;8.30;60.90;;;;;;4975387;28;20555;-62
2022/04/03 04:59:03;;;;;;;5.35;3.63;;;8.30;61.10;;;;;;4975062;28;20478;-55
2022/04/03 05:01:28;;;;;;;5.57;4.00;;;8.20;61.00;;;;;;4982114;28;20037;-54
2022/04/03 05:03:54;;;;;;;5.03;3.45;;;8.30;60.80;;;;;;4986513;28;20019;-67
2022/04/03 05:06:22;;;;;;;5.93;4.00;;;8.20;61.00;;;;;;4974918;28;20432;-66
2022/04/03 05:08:49;;;;;;;6.00;3.85;;;8.20;61.10;;;;;;4975138;28;20042;-66
2022/04/03 05:11:15;;;;;;;5.60;3.88;;;8.20;61.20;;;;;;4974691;28;20019;-66
2022/04/03 05:13:42;;;;;;;4.63;3.50;;;8.20;61.30;;;;;;4974999;28;20461;-66
2022/04/03 05:16:08;;;;;;;7.28;4.50;;;8.20;61.20;;;;;;4974892;28;20023;-65
2022/04/03 05:18:35;;;;;;;5.60;3.90;;;8.20;61.20;;;;;;4974951;28;20034;-66
2022/04/03 05:21:01;;;;;;;8.68;4.10;;;8.10;61.10;;;;;;4974386;28;20045;-54
2022/04/03 05:23:27;;;;;;;5.60;4.30;;;8.10;61.30;;;;;;4974858;28;20122;-63
2022/04/03 05:25:53;;;;;;;6.90;4.88;;;8.10;61.50;;;;;;4983036;28;20523;-63
2022/04/03 05:28:20;;;;;;;6.68;4.93;;;8.20;61.40;;;;;;4990799;28;20042;-60
2022/04/03 05:30:46;;;;;;;7.22;4.28;;;8.20;61.40;;;;;;4994048;28;20101;-61
2022/04/03 05:33:14;;;;;;;5.80;4.68;;;8.10;61.40;;;;;;4992636;28;20117;-55
2022/04/03 05:35:40;;;;;;;9.35;4.60;;;8.10;61.70;;;;;;4983906;28;20081;-58
2022/04/03 05:38:05;;;;;;;10.85;4.80;;;8.10;61.50;;;;;;4988960;28;20384;-64
2022/04/03 05:40:31;;;;;;;5.78;4.03;;;8.10;61.50;;;;;;4984872;28;20459;-66
2022/04/03 05:42:57;;;;;;;6.45;4.07;;;8.00;61.60;;;;;;4992440;28;20026;-67
2022/04/03 05:45:24;;;;;;;7.10;5.47;;;8.00;61.90;;;;;;4993600;28;20030;-66
2022/04/03 05:47:50;;;;;;;7.95;6.75;;;8.10;62.10;;;;;;4993767;28;20394;-66
2022/04/03 05:50:16;;;;;;;8.73;5.57;;;8.10;62.10;;;;;;4981113;28;20476;-54
2022/04/03 05:52:47;;;;;;;7.70;6.07;;;8.10;62.10;;;;;;4974150;28;20039;-66
2022/04/03 05:55:15;;;;;;;6.97;5.40;;;8.10;62.30;;;;;;4992406;28;20018;-53
2022/04/03 05:57:41;;;;;;;8.35;5.63;;;8.10;62.20;;;;;;4986291;28;20379;-63
2022/04/03 06:00:13;;;;;;;8.07;5.38;;;8.10;62.30;;;;;;4991908;28;20507;-53
2022/04/03 06:02:59;;;;;;;9.20;5.53;;;8.10;62.60;;;;;;4993212;28;20061;-54
2022/04/03 06:05:29;;;;;;;7.22;5.25;;;8.20;62.50;;;;;;4973446;28;20030;-68
2022/04/03 06:07:55;;;;;;;10.43;5.40;;;8.20;62.60;;;;;;4973954;28;20081;-52
2022/04/03 06:10:23;;;;;;;7.63;5.57;;;8.10;62.60;;;;;;4956283;28;20389;-67
2022/04/03 06:13:00;;;;;;;9.63;5.22;;;8.20;63.10;;;;;;4991755;28;20425;-67
2022/04/03 06:15:34;;;;;;;10.13;5.32;;;8.30;63.30;;;;;;4988742;28;20069;-67
2022/04/03 06:18:01;;;;;;;9.43;5.05;;;8.40;63.20;;;;;;4997072;28;20054;-67
2022/04/03 06:20:27;;;;;;;9.27;5.75;;;8.50;63.10;;;;;;4996828;28;20041;-61
2022/04/03 06:22:52;;;;;;;6.78;4.82;;;8.60;63.00;;;;;;4988967;28;20105;-66
2022/04/03 06:25:20;;;;;;;10.65;5.13;;;8.70;62.70;;;;;;4996957;28;20035;-68
2022/04/03 06:27:45;;;;;;;9.00;5.00;;;8.70;62.50;;;;;;4996483;28;20448;-64
2022/04/03 06:30:11;;;;;;;8.73;5.88;;;8.80;62.60;;;;;;4996448;28;20494;-67
2022/04/03 06:32:37;;;;;;;7.95;6.07;;;8.90;62.60;;;;;;4996548;28;20056;-66
2022/04/03 06:35:03;;;;;;;8.90;7.53;;;8.90;62.80;;;;;;4995563;28;20011;-54
2022/04/03 06:37:29;;;;;;;19.35;13.20;;;9.00;62.50;;;;;;4995628;28;20439;-56
2022/04/03 06:39:54;;;;;;;37.63;22.17;;;9.00;62.50;;;;;;4996695;28;20034;-57
2022/04/03 06:42:20;;;;;;;20.30;14.63;;;9.10;62.70;;;;;;4987049;28;20444;-65
2022/04/03 06:44:45;;;;;;;22.23;15.23;;;9.20;64.10;;;;;;4993217;28;20026;-63
2022/04/03 06:47:11;;;;;;;18.58;13.60;;;9.30;62.80;;;;;;4995827;28;20027;-67
2022/04/03 06:49:40;;;;;;;19.80;13.32;;;9.30;62.40;;;;;;4996730;28;20034;-60
2022/04/03 06:52:09;;;;;;;15.60;10.55;;;9.40;62.10;;;;;;4996445;28;20109;-67
2022/04/03 06:54:36;;;;;;;12.05;8.57;;;9.40;61.80;;;;;;4993362;28;20053;-66
2022/04/03 06:57:01;;;;;;;8.43;6.70;;;9.40;61.80;;;;;;4978963;28;20038;-65
2022/04/03 06:59:29;;;;;;;7.90;6.20;;;9.50;61.10;;;;;;4977127;28;20030;-65
2022/04/03 07:01:54;;;;;;;9.30;5.35;;;9.50;60.70;;;;;;4988534;28;20030;-66
2022/04/03 07:04:20;;;;;;;6.57;5.28;;;9.60;60.60;;;;;;4995501;28;20084;-59
2022/04/03 07:06:45;;;;;;;6.82;4.80;;;9.70;60.60;;;;;;4975427;28;20081;-65
2022/04/03 07:09:11;;;;;;;7.68;4.55;;;9.70;60.80;;;;;;4994681;28;20029;-66
2022/04/03 07:11:37;;;;;;;5.18;3.72;;;9.80;61.30;;;;;;4993127;28;20045;-63
2022/04/03 07:14:03;;;;;;;5.95;3.50;;;9.80;61.30;;;;;;4995075;28;20097;-61
2022/04/03 07:16:29;;;;;;;7.55;3.80;;;9.90;61.40;;;;;;4995697;28;20179;-66
2022/04/03 07:18:54;;;;;;;8.73;3.83;;;10.00;61.40;;;;;;4996011;28;20487;-66
2022/04/03 07:21:20;;;;;;;4.47;3.20;;;10.10;61.10;;;;;;4994851;28;20463;-56
2022/04/03 07:23:46;;;;;;;7.10;3.10;;;10.10;61.30;;;;;;4989285;28;20450;-67
2022/04/03 07:26:12;;;;;;;5.50;3.30;;;10.20;61.30;;;;;;4993515;28;20042;-57
2022/04/03 07:28:38;;;;;;;4.00;2.92;;;10.30;62.20;;;;;;4987719;28;20121;-65
2022/04/03 07:31:03;;;;;;;5.68;3.22;;;10.40;60.70;;;;;;4994421;28;20380;-64
2022/04/03 07:33:29;;;;;;;5.05;3.30;;;10.50;60.60;;;;;;4987904;28;20562;-67
2022/04/03 07:35:54;;;;;;;4.93;2.45;;;10.50;60.30;;;;;;4989326;28;20118;-68
2022/04/03 07:38:20;;;;;;;5.25;3.03;;;10.60;60.70;;;;;;4988006;28;20038;-68
2022/04/03 07:40:46;;;;;;;3.45;2.33;;;10.60;61.40;;;;;;4981661;28;20023;-67
2022/04/03 07:43:16;;;;;;;6.32;2.35;;;10.70;61.20;;;;;;4982449;28;20034;-68
2022/04/03 07:45:42;;;;;;;3.95;2.13;;;10.90;61.10;;;;;;4983503;28;20023;-67
2022/04/03 07:48:09;;;;;;;8.38;4.40;;;11.00;61.10;;;;;;4989837;28;20487;-67
2022/04/03 07:50:34;;;;;;;6.30;3.28;;;11.10;61.20;;;;;;4980241;28;20022;-65
2022/04/03 07:53:00;;;;;;;5.40;3.03;;;11.10;61.40;;;;;;4983996;28;20365;-63
2022/04/03 07:55:26;;;;;;;3.53;2.45;;;11.20;61.10;;;;;;4985771;28;20023;-67
2022/04/03 07:57:51;;;;;;;3.80;1.80;;;11.20;60.70;;;;;;4986791;28;20105;-67
2022/04/03 08:00:17;;;;;;;4.07;2.38;;;11.20;60.30;;;;;;4977813;28;20363;-67
2022/04/03 08:02:43;;;;;;;4.20;2.03;;;11.20;60.40;;;;;;4988594;28;20027;-67
2022/04/03 08:05:09;;;;;;;3.42;2.28;;;11.30;59.80;;;;;;4983445;28;20046;-68
2022/04/03 08:07:44;;;;;;;3.45;2.42;;;11.30;60.40;;;;;;4987082;28;20033;-66
2022/04/03 08:10:12;;;;;;;5.30;2.40;;;11.30;60.40;;;;;;4990527;28;20046;-67
2022/04/03 08:12:39;;;;;;;3.90;1.40;;;11.40;60.10;;;;;;4980120;28;20038;-62
2022/04/03 08:15:07;;;;;;;2.83;1.80;;;11.40;58.70;;;;;;4985470;28;20026;-69
2022/04/03 08:17:34;;;;;;;3.03;2.00;;;11.50;58.90;;;;;;4990927;28;20035;-63
2022/04/03 08:20:00;;;;;;;3.75;2.40;;;11.50;59.40;;;;;;4988503;28;20030;-65
2022/04/03 08:22:26;;;;;;;6.57;2.13;;;11.60;58.90;;;;;;4987559;28;20132;-72
2022/04/03 08:24:52;;;;;;;3.70;2.20;;;11.70;59.30;;;;;;4988773;28;20447;-66
2022/04/03 08:27:18;;;;;;;3.17;1.73;;;11.70;59.10;;;;;;4992235;28;20503;-66
2022/04/03 08:29:44;;;;;;;4.32;2.00;;;11.80;59.40;;;;;;4985214;28;20047;-73
2022/04/03 08:32:09;;;;;;;6.10;2.00;;;11.80;60.00;;;;;;4978632;28;20043;-68
2022/04/03 08:34:35;;;;;;;2.30;1.70;;;11.80;60.00;;;;;;4980182;28;20077;-61
2022/04/03 08:37:00;;;;;;;4.18;1.60;;;11.90;58.90;;;;;;4985839;28;20026;-68
2022/04/03 08:39:26;;;;;;;3.35;1.60;;;11.90;58.70;;;;;;4986049;28;20149;-62
2022/04/03 08:41:53;;;;;;;4.68;1.73;;;11.90;59.50;;;;;;4986608;28;20362;-68
2022/04/03 08:44:21;;;;;;;2.53;1.45;;;12.00;59.30;;;;;;4983805;28;20035;-67
2022/04/03 08:46:48;;;;;;;6.50;1.83;;;12.00;59.00;;;;;;4984282;28;20504;-66
2022/04/03 08:49:19;;;;;;;3.33;1.50;;;12.00;58.00;;;;;;4982694;28;20089;-58
2022/04/03 08:51:46;;;;;;;6.03;1.70;;;12.00;58.10;;;;;;4991388;28;20046;-58
2022/04/03 08:54:14;;;;;;;4.53;1.40;;;12.00;57.40;;;;;;4986904;28;20053;-65
2022/04/03 08:56:42;;;;;;;3.28;1.65;;;12.00;56.40;;;;;;4986330;28;20029;-64
2022/04/03 08:59:08;;;;;;;4.38;1.63;;;12.00;57.70;;;;;;4991647;28;20073;-63
2022/04/03 09:01:34;;;;;;;6.03;1.95;;;12.00;57.80;;;;;;4986895;28;20034;-49
2022/04/03 09:04:00;;;;;;;6.20;2.03;;;12.00;56.60;;;;;;4987696;28;20488;-50
2022/04/03 09:06:26;;;;;;;3.25;1.83;;;12.00;57.10;;;;;;4980806;28;20058;-67
2022/04/03 09:08:51;;;;;;;6.00;1.95;;;12.00;56.80;;;;;;4991364;28;20562;-66
2022/04/03 09:11:18;;;;;;;5.18;1.92;;;12.10;57.10;;;;;;4980740;28;20038;-51
2022/04/03 09:13:45;;;;;;;6.45;2.10;;;12.00;57.10;;;;;;4987532;28;20102;-64
2022/04/03 09:16:11;;;;;;;2.85;1.70;;;12.10;56.90;;;;;;4986048;28;20031;-51
2022/04/03 09:18:53;;;;;;;2.60;1.88;;;12.00;56.70;;;;;;4991280;28;20038;-59
2022/04/03 09:21:20;;;;;;;2.77;1.70;;;12.10;57.00;;;;;;4982004;28;20031;-56
2022/04/03 09:24:00;;;;;;;3.45;1.50;;;12.10;57.20;;;;;;4986265;28;20064;-57
2022/04/03 09:26:28;;;;;;;2.15;1.60;;;12.10;57.00;;;;;;4983068;28;20171;-61
2022/04/03 09:29:14;;;;;;;4.72;1.70;;;12.20;56.50;;;;;;4986698;28;20392;-65
2022/04/03 09:31:41;;;;;;;2.53;1.52;;;12.20;55.70;;;;;;4985656;28;20046;-69
2022/04/03 09:34:08;;;;;;;6.03;1.55;;;12.20;55.30;;;;;;4978729;28;20542;-63
2022/04/03 09:36:35;;;;;;;4.03;1.60;;;12.20;54.10;;;;;;4991962;28;20029;-49
2022/04/03 09:39:09;;;;;;;1.80;1.60;;;12.20;54.40;;;;;;4991264;28;20415;-57
2022/04/03 09:41:57;;;;;;;2.58;1.15;;;12.20;54.20;;;;;;4987269;28;20543;-63
2022/04/03 09:44:34;;;;;;;3.30;1.15;;;12.20;53.10;;;;;;4987892;28;20034;-55
2022/04/03 09:47:20;;;;;;;1.92;0.65;;;12.30;52.60;;;;;;4982974;28;20571;-52
2022/04/03 09:50:06;;;;;;;2.10;0.70;;;12.30;52.40;;;;;;4983099;28;20117;-61
2022/04/03 09:52:43;;;;;;;2.80;1.13;;;12.30;53.50;;;;;;4986321;28;20049;-59
2022/04/03 09:55:17;;;;;;;3.13;1.10;;;12.40;53.40;;;;;;4982932;28;20113;-56
2022/04/03 09:57:48;;;;;;;1.80;1.02;;;12.40;52.20;;;;;;4986944;28;20038;-66
2022/04/03 10:00:41;;;;;;;3.33;1.00;;;12.40;52.60;;;;;;4987869;28;20026;-64
2022/04/03 10:03:10;;;;;;;2.58;1.10;;;12.40;52.40;;;;;;4983135;28;20093;-51
2022/04/03 10:05:36;;;;;;;3.47;1.25;;;12.40;51.60;;;;;;4989239;28;20109;-65
2022/04/03 10:08:06;;;;;;;2.67;1.10;;;12.50;51.60;;;;;;4990822;28;20025;-56
2022/04/03 10:10:35;;;;;;;2.05;1.00;;;12.50;51.90;;;;;;4985255;28;20492;-56
2022/04/03 10:13:02;;;;;;;3.25;0.88;;;12.50;52.00;;;;;;4985145;28;20038;-51
2022/04/03 10:15:29;;;;;;;2.47;1.10;;;12.50;52.60;;;;;;4986415;28;20088;-53
2022/04/03 10:17:55;;;;;;;4.10;1.08;;;12.60;52.70;;;;;;4987709;28;20053;-59
2022/04/03 10:20:25;;;;;;;7.70;0.90;;;12.70;54.90;;;;;;4988916;28;20027;-55
2022/04/03 10:22:55;;;;;;;4.75;1.02;;;12.80;58.90;;;;;;4991500;28;20468;-66
2022/04/03 10:25:28;;;;;;;2.70;1.20;;;12.90;61.00;;;;;;4993698;28;20482;-61
2022/04/03 10:27:58;;;;;;;1.63;1.00;;;13.00;59.00;;;;;;4990659;28;20026;-62
2022/04/03 10:30:37;;;;;;;1.83;1.02;;;13.00;54.50;;;;;;4989148;28;20029;-49
2022/04/03 10:33:02;;;;;;;3.80;1.25;;;13.10;52.40;;;;;;4980874;28;20037;-49
2022/04/03 10:35:28;;;;;;;2.78;1.20;;;13.10;51.70;;;;;;5000875;28;20120;-61
2022/04/03 10:38:05;;;;;;;1.10;0.70;;;13.10;58.20;;;;;;4991283;28;20037;-51
2022/04/03 10:40:35;;;;;;;1.63;0.47;;;13.30;60.40;;;;;;4996223;28;20049;-60
2022/04/03 10:43:03;;;;;;;2.60;0.60;;;13.40;60.60;;;;;;4976618;28;20383;-60
2022/04/03 10:45:30;;;;;;;2.78;0.80;;;13.40;55.10;;;;;;4987406;28;20046;-53
2022/04/03 10:48:20;;;;;;;3.97;0.98;;;13.40;54.40;;;;;;4977380;28;20023;-56
2022/04/03 10:51:02;;;;;;;2.97;1.02;;;13.40;52.10;;;;;;4986959;28;20034;-54
2022/04/03 10:53:38;;;;;;;3.38;1.17;;;13.40;50.30;;;;;;4989269;28;20042;-64
2022/04/03 10:56:19;;;;;;;3.10;1.00;;;13.40;51.00;;;;;;4988834;28;20519;-55
2022/04/03 10:58:47;;;;;;;2.13;1.58;;;13.30;50.20;;;;;;4987224;28;20022;-54
2022/04/03 11:01:26;;;;;;;3.78;1.50;;;13.30;52.00;;;;;;4993437;28;20080;-60
2022/04/03 11:03:58;;;;;;;1.98;1.33;;;13.40;53.50;;;;;;4984024;28;20026;-53
2022/04/03 11:06:31;;;;;;;6.40;1.63;;;13.50;50.60;;;;;;4991977;28;20022;-53
2022/04/03 11:09:05;;;;;;;6.60;2.08;;;13.40;51.60;;;;;;4991564;28;20057;-54
2022/04/03 11:11:38;;;;;;;3.42;1.02;;;13.40;52.50;;;;;;4985111;28;20029;-57
2022/04/03 11:14:08;;;;;;;3.30;0.70;;;13.40;50.70;;;;;;4990565;28;20041;-53
2022/04/03 11:16:54;;;;;;;3.03;0.80;;;13.40;48.10;;;;;;4992579;28;20105;-53
2022/04/03 11:19:45;;;;;;;1.75;0.52;;;13.40;49.20;;;;;;4993293;28;20042;-55
2022/04/03 11:22:16;;;;;;;1.52;0.40;;;13.40;48.50;;;;;;4994210;28;20495;-51
2022/04/03 11:24:42;;;;;;;3.95;0.77;;;13.40;46.90;;;;;;4975779;28;20386;-63
2022/04/03 11:27:08;;;;;;;4.45;0.88;;;13.40;46.70;;;;;;4986566;28;20483;-58
2022/04/03 11:29:35;;;;;;;1.20;0.40;;;13.40;49.50;;;;;;4989448;28;20018;-64
2022/04/03 11:32:04;;;;;;;1.35;0.40;;;13.50;48.10;;;;;;4975142;28;20113;-54
2022/04/03 11:34:33;;;;;;;4.78;0.98;;;13.50;46.70;;;;;;4982692;28;20066;-62
2022/04/03 11:37:02;;;;;;;2.35;0.77;;;13.50;51.60;;;;;;4990983;28;20046;-59
2022/04/03 11:39:36;;;;;;;2.35;0.63;;;13.60;49.70;;;;;;4992609;28;20124;-54
2022/04/03 11:42:08;;;;;;;3.22;0.88;;;13.50;48.40;;;;;;4986026;28;20027;-56
2022/04/03 11:44:35;;;;;;;3.20;0.90;;;13.50;48.50;;;;;;4988115;28;20031;-55
2022/04/03 11:47:02;;;;;;;3.05;0.60;;;13.50;49.80;;;;;;4989758;28;20102;-54
2022/04/03 11:49:30;;;;;;;2.40;0.57;;;13.50;49.30;;;;;;4987097;28;20074;-51
2022/04/03 11:52:09;;;;;;;2.72;0.60;;;13.50;48.80;;;;;;4991016;28;20034;-63
2022/04/03 11:54:36;;;;;;;2.55;0.60;;;13.50;50.20;;;;;;4995280;28;20033;-65
2022/04/03 11:57:07;;;;;;;2.30;0.95;;;13.50;49.30;;;;;;4992527;28;20383;-63
2022/04/03 11:59:35;;;;;;;3.83;0.93;;;13.50;50.60;;;;;;4987804;28;20043;-55
2022/04/03 12:02:09;;;;;;;4.32;1.08;;;13.50;51.40;;;;;;4992094;28;20285;-52
2022/04/03 12:04:40;;;;;;;1.83;1.00;;;13.50;52.30;;;;;;4991666;28;20029;-57
2022/04/03 12:07:05;;;;;;;2.33;1.02;;;13.60;52.80;;;;;;4987370;28;20563;-61
2022/04/03 12:09:32;;;;;;;3.17;0.82;;;13.60;52.20;;;;;;4995158;28;20049;-65
2022/04/03 12:12:04;;;;;;;2.35;0.60;;;13.60;52.10;;;;;;4995277;28;20096;-57
2022/04/03 12:14:31;;;;;;;2.13;0.73;;;13.50;51.50;;;;;;4989776;28;20014;-52
2022/04/03 12:17:07;;;;;;;2.58;0.73;;;13.60;51.00;;;;;;4989147;28;20053;-62
2022/04/03 12:19:36;;;;;;;1.52;0.50;;;13.60;51.30;;;;;;4988966;28;20026;-60
2022/04/03 12:22:04;;;;;;;4.18;0.50;;;13.60;51.20;;;;;;4984834;28;20050;-58
2022/04/03 12:24:31;;;;;;;2.00;0.60;;;13.60;50.90;;;;;;4986543;28;20495;-64
2022/04/03 12:26:59;;;;;;;3.78;0.70;;;13.70;50.20;;;;;;4989748;28;20034;-65
2022/04/03 12:29:27;;;;;;;1.65;0.63;;;13.70;50.00;;;;;;4988371;28;20029;-49
2022/04/03 12:32:06;;;;;;;2.95;0.57;;;13.70;51.00;;;;;;4987254;28;20050;-58
2022/04/03 12:34:36;;;;;;;2.10;0.70;;;13.80;51.50;;;;;;4993363;28;20022;-51
2022/04/03 12:37:03;;;;;;;1.23;0.50;;;13.90;51.20;;;;;;4991756;28;20057;-56
2022/04/03 12:39:40;;;;;;;2.20;0.68;;;14.00;51.80;;;;;;4986816;28;20113;-54
2022/04/03 12:42:26;;;;;;;5.57;0.93;;;14.10;51.30;;;;;;4989895;28;20085;-51
2022/04/03 12:44:57;;;;;;;4.45;1.30;;;14.10;51.60;;;;;;4988674;28;20052;-59
2022/04/03 12:47:39;;;;;;;2.55;0.70;;;14.10;51.30;;;;;;4987353;28;20287;-58
2022/04/03 12:50:11;;;;;;;1.85;0.70;;;14.10;52.30;;;;;;4991298;28;20040;-57
2022/04/03 12:52:39;;;;;;;2.42;0.80;;;14.20;51.10;;;;;;4989567;28;20074;-61
2022/04/03 12:55:26;;;;;;;1.60;0.65;;;14.20;53.10;;;;;;4979787;28;20447;-53